sensor_id;sensor_type;location;lat;lon;timestamp;temperature;humidity
37310;DHT22;23195;47.744;7.358;2023-02-02T00:17:28;4.90;99.90
37310;DHT22;23195;47.744;7.358;2023-02-02T01:19:30;5.20;99.90
37310;DHT22;23195;47.744;7.358;2023-02-02T06:24:56;5.20;99.90
37310;DHT22;23195;47.744;7.358;2023-02-02T06:27:32;5.10;99.90
37310;DHT22;23195;47.744;7.358;2023-02-02T06:30:53;5.10;99.90
37310;DHT22;23195;47.744;7.358;2023-02-02T06:33:56;5.10;99.90
37310;DHT22;23195;47.744;7.358;2023-02-02T06:36:55;5.10;99.90
37310;DHT22;23195;47.744;7.358;2023-02-02T06:39:36;4.90;99.90
37310;DHT22;23195;47.744;7.358;2023-02-02T06:42:41;5.20;99.90
37310;DHT22;23195;47.744;7.358;2023-02-02T06:45:32;4.90;99.90
37310;DHT22;23195;47.744;7.358;2023-02-02T06:48:25;5.10;99.90
37310;DHT22;23195;47.744;7.358;2023-02-02T06:57:34;5.20;99.90
37310;DHT22;23195;47.744;7.358;2023-02-02T07:00:23;4.10;99.90
37310;DHT22;23195;47.744;7.358;2023-02-02T07:03:02;5.30;99.90
37310;DHT22;23195;47.744;7.358;2023-02-02T07:05:31;5.20;99.90
37310;DHT22;23195;47.744;7.358;2023-02-02T07:07:57;5.30;99.90
37310;DHT22;23195;47.744;7.358;2023-02-02T07:10:23;5.20;99.90
37310;DHT22;23195;47.744;7.358;2023-02-02T07:12:49;5.20;99.90
37310;DHT22;23195;47.744;7.358;2023-02-02T07:15:17;5.30;99.90
37310;DHT22;23195;47.744;7.358;2023-02-02T07:17:43;5.30;99.90
37310;DHT22;23195;47.744;7.358;2023-02-02T07:20:09;5.40;99.90
37310;DHT22;23195;47.744;7.358;2023-02-02T07:22:38;5.40;99.90
37310;DHT22;23195;47.744;7.358;2023-02-02T07:25:05;5.40;99.90
37310;DHT22;23195;47.744;7.358;2023-02-02T07:27:40;5.50;99.90
37310;DHT22;23195;47.744;7.358;2023-02-02T07:30:14;5.50;99.90
37310;DHT22;23195;47.744;7.358;2023-02-02T07:32:51;5.50;99.90
37310;DHT22;23195;47.744;7.358;2023-02-02T07:35:37;5.50;99.90
37310;DHT22;23195;47.744;7.358;2023-02-02T07:38:16;5.60;99.90
37310;DHT22;23195;47.744;7.358;2023-02-02T07:40:47;5.60;99.90
37310;DHT22;23195;47.744;7.358;2023-02-02T07:43:23;5.60;99.90
37310;DHT22;23195;47.744;7.358;2023-02-02T07:46:00;5.70;99.90
37310;DHT22;23195;47.744;7.358;2023-02-02T07:48:48;5.60;99.90
37310;DHT22;23195;47.744;7.358;2023-02-02T07:51:26;5.70;99.90
37310;DHT22;23195;47.744;7.358;2023-02-02T07:53:53;5.60;99.90
37310;DHT22;23195;47.744;7.358;2023-02-02T07:56:29;5.80;99.90
37310;DHT22;23195;47.744;7.358;2023-02-02T07:59:00;4.80;99.90
37310;DHT22;23195;47.744;7.358;2023-02-02T08:01:28;5.90;99.90
37310;DHT22;23195;47.744;7.358;2023-02-02T08:04:07;5.60;99.90
37310;DHT22;23195;47.744;7.358;2023-02-02T08:06:45;5.40;99.90
37310;DHT22;23195;47.744;7.358;2023-02-02T08:09:24;6.00;99.90
37310;DHT22;23195;47.744;7.358;2023-02-02T08:11:50;6.10;99.90
37310;DHT22;23195;47.744;7.358;2023-02-02T08:14:44;6.10;99.90
37310;DHT22;23195;47.744;7.358;2023-02-02T08:17:27;6.10;99.90
37310;DHT22;23195;47.744;7.358;2023-02-02T08:20:01;6.10;99.90
37310;DHT22;23195;47.744;7.358;2023-02-02T08:23:02;6.10;99.90
37310;DHT22;23195;47.744;7.358;2023-02-02T08:25:49;6.00;99.90
37310;DHT22;23195;47.744;7.358;2023-02-02T08:28:50;6.20;99.90
37310;DHT22;23195;47.744;7.358;2023-02-02T08:34:25;6.30;99.90
37310;DHT22;23195;47.744;7.358;2023-02-02T08:37:04;6.30;99.90
37310;DHT22;23195;47.744;7.358;2023-02-02T08:39:30;5.00;99.90
37310;DHT22;23195;47.744;7.358;2023-02-02T08:42:26;6.40;99.90
37310;DHT22;23195;47.744;7.358;2023-02-02T08:45:09;6.30;99.90
37310;DHT22;23195;47.744;7.358;2023-02-02T08:47:48;6.40;99.90
37310;DHT22;23195;47.744;7.358;2023-02-02T08:50:52;6.40;99.90
37310;DHT22;23195;47.744;7.358;2023-02-02T08:57:14;6.40;99.90
37310;DHT22;23195;47.744;7.358;2023-02-02T08:59:53;6.50;99.90
37310;DHT22;23195;47.744;7.358;2023-02-02T09:05:59;6.80;99.90
37310;DHT22;23195;47.744;7.358;2023-02-02T09:12:05;6.70;99.90
37310;DHT22;23195;47.744;7.358;2023-02-02T09:14:47;6.80;99.90
37310;DHT22;23195;47.744;7.358;2023-02-02T09:17:33;6.80;99.90
37310;DHT22;23195;47.744;7.358;2023-02-02T09:26:54;6.60;99.90
37310;DHT22;23195;47.744;7.358;2023-02-02T09:29:40;6.60;99.90
37310;DHT22;23195;47.744;7.358;2023-02-02T09:38:40;6.50;99.90
37310;DHT22;23195;47.744;7.358;2023-02-02T09:50:57;6.70;99.90
37310;DHT22;23195;47.744;7.358;2023-02-02T09:57:04;6.60;99.90
37310;DHT22;23195;47.744;7.358;2023-02-02T10:00:09;6.70;99.90
37310;DHT22;23195;47.744;7.358;2023-02-02T10:06:59;6.90;99.90
37310;DHT22;23195;47.744;7.358;2023-02-02T10:13:27;5.90;99.90
37310;DHT22;23195;47.744;7.358;2023-02-02T10:30:27;7.70;99.90
37310;DHT22;23195;47.744;7.358;2023-02-02T10:33:37;7.70;99.90
37310;DHT22;23195;47.744;7.358;2023-02-02T10:45:26;8.40;99.90
37310;DHT22;23195;47.744;7.358;2023-02-02T10:48:22;7.90;99.90
37310;DHT22;23195;47.744;7.358;2023-02-02T10:51:26;7.90;99.90
37310;DHT22;23195;47.744;7.358;2023-02-02T10:58:28;7.90;99.90
37310;DHT22;23195;47.744;7.358;2023-02-02T11:00:59;7.90;99.90
37310;DHT22;23195;47.744;7.358;2023-02-02T11:03:37;8.00;99.90
37310;DHT22;23195;47.744;7.358;2023-02-02T11:09:49;8.00;99.90
37310;DHT22;23195;47.744;7.358;2023-02-02T11:15:31;8.00;99.90
37310;DHT22;23195;47.744;7.358;2023-02-02T11:22:26;8.20;99.90
37310;DHT22;23195;47.744;7.358;2023-02-02T11:28:37;8.60;99.90
37310;DHT22;23195;47.744;7.358;2023-02-02T11:31:55;8.80;99.90
37310;DHT22;23195;47.744;7.358;2023-02-02T11:34:53;8.80;99.90
37310;DHT22;23195;47.744;7.358;2023-02-02T11:51:23;8.40;99.90
37310;DHT22;23195;47.744;7.358;2023-02-02T11:54:50;8.40;99.90
37310;DHT22;23195;47.744;7.358;2023-02-02T11:57:38;8.50;99.90
37310;DHT22;23195;47.744;7.358;2023-02-02T12:00:17;8.70;99.90
37310;DHT22;23195;47.744;7.358;2023-02-02T12:03:00;8.70;99.90
37310;DHT22;23195;47.744;7.358;2023-02-02T12:05:38;8.60;99.90
37310;DHT22;23195;47.744;7.358;2023-02-02T12:08:13;8.50;99.90
37310;DHT22;23195;47.744;7.358;2023-02-02T12:11:00;8.50;99.90
37310;DHT22;23195;47.744;7.358;2023-02-02T12:44:41;9.00;99.90
37310;DHT22;23195;47.744;7.358;2023-02-02T12:47:33;8.70;99.90
37310;DHT22;23195;47.744;7.358;2023-02-02T12:57:20;8.30;99.90
37310;DHT22;23195;47.744;7.358;2023-02-02T13:03:35;8.20;99.90
37310;DHT22;23195;47.744;7.358;2023-02-02T13:06:37;8.40;99.90
37310;DHT22;23195;47.744;7.358;2023-02-02T13:12:49;8.50;99.90
37310;DHT22;23195;47.744;7.358;2023-02-02T13:15:30;8.50;99.90
37310;DHT22;23195;47.744;7.358;2023-02-02T13:21:14;8.40;99.90
37310;DHT22;23195;47.744;7.358;2023-02-02T13:23:51;8.90;99.90
37310;DHT22;23195;47.744;7.358;2023-02-02T13:26:35;7.90;99.90
37310;DHT22;23195;47.744;7.358;2023-02-02T13:34:55;8.50;99.90
37310;DHT22;23195;47.744;7.358;2023-02-02T13:37:53;8.60;99.90
37310;DHT22;23195;47.744;7.358;2023-02-02T13:41:01;8.60;99.90
37310;DHT22;23195;47.744;7.358;2023-02-02T13:46:54;8.60;99.90
37310;DHT22;23195;47.744;7.358;2023-02-02T13:49:48;8.60;99.90
37310;DHT22;23195;47.744;7.358;2023-02-02T13:56:03;8.80;99.90
37310;DHT22;23195;47.744;7.358;2023-02-02T14:02:11;8.90;99.90
37310;DHT22;23195;47.744;7.358;2023-02-02T14:04:40;8.80;99.90
37310;DHT22;23195;47.744;7.358;2023-02-02T14:07:35;8.70;99.90
37310;DHT22;23195;47.744;7.358;2023-02-02T14:10:30;8.60;99.90
37310;DHT22;23195;47.744;7.358;2023-02-02T14:24:50;8.50;99.90
37310;DHT22;23195;47.744;7.358;2023-02-02T14:30:34;8.40;99.90
37310;DHT22;23195;47.744;7.358;2023-02-02T14:36:13;9.10;99.90
37310;DHT22;23195;47.744;7.358;2023-02-02T14:39:15;7.70;99.90
37310;DHT22;23195;47.744;7.358;2023-02-02T14:42:14;8.20;99.90
37310;DHT22;23195;47.744;7.358;2023-02-02T14:45:11;8.30;99.90
37310;DHT22;23195;47.744;7.358;2023-02-02T14:50:45;8.40;99.90
37310;DHT22;23195;47.744;7.358;2023-02-02T14:56:08;8.30;99.90
37310;DHT22;23195;47.744;7.358;2023-02-02T14:59:05;8.40;99.90
37310;DHT22;23195;47.744;7.358;2023-02-02T15:08:41;8.30;99.90
37310;DHT22;23195;47.744;7.358;2023-02-02T15:11:26;8.20;99.90
37310;DHT22;23195;47.744;7.358;2023-02-02T15:14:10;8.10;99.90
37310;DHT22;23195;47.744;7.358;2023-02-02T15:17:05;8.20;99.90
37310;DHT22;23195;47.744;7.358;2023-02-02T15:23:02;8.20;99.90
37310;DHT22;23195;47.744;7.358;2023-02-02T15:26:17;8.10;99.90
37310;DHT22;23195;47.744;7.358;2023-02-02T15:29:18;8.10;99.90
37310;DHT22;23195;47.744;7.358;2023-02-02T15:32:02;8.10;99.90
37310;DHT22;23195;47.744;7.358;2023-02-02T15:35:16;8.10;99.90
37310;DHT22;23195;47.744;7.358;2023-02-02T15:37:59;8.10;99.90
37310;DHT22;23195;47.744;7.358;2023-02-02T15:40:42;8.10;99.90
37310;DHT22;23195;47.744;7.358;2023-02-02T15:43:36;8.00;99.90
37310;DHT22;23195;47.744;7.358;2023-02-02T15:46:21;8.10;99.90
37310;DHT22;23195;47.744;7.358;2023-02-02T15:49:36;8.10;99.90
37310;DHT22;23195;47.744;7.358;2023-02-02T15:52:44;8.00;99.90
37310;DHT22;23195;47.744;7.358;2023-02-02T15:58:37;8.00;99.90
37310;DHT22;23195;47.744;7.358;2023-02-02T16:01:20;8.00;99.90
37310;DHT22;23195;47.744;7.358;2023-02-02T16:04:25;7.90;99.90
37310;DHT22;23195;47.744;7.358;2023-02-02T16:07:30;7.90;99.90
37310;DHT22;23195;47.744;7.358;2023-02-02T16:10:15;7.90;99.90
37310;DHT22;23195;47.744;7.358;2023-02-02T16:12:53;7.90;99.90
37310;DHT22;23195;47.744;7.358;2023-02-02T16:15:35;7.90;99.90
37310;DHT22;23195;47.744;7.358;2023-02-02T16:18:35;7.90;99.90
37310;DHT22;23195;47.744;7.358;2023-02-02T16:21:22;7.80;99.90
37310;DHT22;23195;47.744;7.358;2023-02-02T16:24:06;7.80;99.90
37310;DHT22;23195;47.744;7.358;2023-02-02T16:26:45;7.80;99.90
37310;DHT22;23195;47.744;7.358;2023-02-02T16:29:24;7.70;99.90
37310;DHT22;23195;47.744;7.358;2023-02-02T16:32:18;7.70;99.90
37310;DHT22;23195;47.744;7.358;2023-02-02T16:34:56;7.50;99.90
37310;DHT22;23195;47.744;7.358;2023-02-02T16:37:42;7.70;99.90
37310;DHT22;23195;47.744;7.358;2023-02-02T16:40:37;7.70;99.90
37310;DHT22;23195;47.744;7.358;2023-02-02T16:43:26;8.30;99.90
37310;DHT22;23195;47.744;7.358;2023-02-02T16:46:05;7.70;99.90
37310;DHT22;23195;47.744;7.358;2023-02-02T16:48:45;7.90;99.90
37310;DHT22;23195;47.744;7.358;2023-02-02T16:51:23;7.60;99.90
37310;DHT22;23195;47.744;7.358;2023-02-02T16:56:49;7.60;99.90
37310;DHT22;23195;47.744;7.358;2023-02-02T16:59:35;7.60;99.90
37310;DHT22;23195;47.744;7.358;2023-02-02T17:04:57;7.60;99.90
37310;DHT22;23195;47.744;7.358;2023-02-02T17:07:48;7.60;99.90
37310;DHT22;23195;47.744;7.358;2023-02-02T18:39:06;7.90;99.90
37310;DHT22;23195;47.744;7.358;2023-02-02T19:01:19;7.30;99.90
37310;DHT22;23195;47.744;7.358;2023-02-02T19:04:30;7.20;99.90
37310;DHT22;23195;47.744;7.358;2023-02-02T19:07:48;6.80;99.90
37310;DHT22;23195;47.744;7.358;2023-02-02T19:18:30;7.10;99.90
37310;DHT22;23195;47.744;7.358;2023-02-02T19:28:38;6.40;99.90
37310;DHT22;23195;47.744;7.358;2023-02-02T19:53:00;6.70;99.90
37310;DHT22;23195;47.744;7.358;2023-02-02T19:56:09;6.70;99.90
37310;DHT22;23195;47.744;7.358;2023-02-02T20:06:56;5.90;99.90
37310;DHT22;23195;47.744;7.358;2023-02-02T20:10:32;6.70;99.90
37310;DHT22;23195;47.744;7.358;2023-02-02T20:43:59;6.50;99.90
37310;DHT22;23195;47.744;7.358;2023-02-02T21:00:56;6.50;99.90
